createdAt,value
2022-09-01T00:00:31.134Z,13.07
2022-09-01T00:01:44.002Z,12.90
2022-09-01T00:02:51.756Z,12.75
2022-09-01T00:04:04.925Z,12.63
2022-09-01T00:05:13.398Z,12.68
2022-09-01T00:06:23.916Z,12.79
2022-09-01T00:07:31.723Z,12.72
2022-09-01T00:08:38.312Z,12.80
2022-09-01T00:09:46.203Z,12.92
2022-09-01T00:10:54.954Z,12.98
2022-09-01T00:12:02.311Z,13.01
2022-09-01T00:13:09.353Z,13.10
2022-09-01T00:14:30.405Z,13.08
2022-09-01T00:15:38.416Z,13.18
2022-09-01T00:16:45.661Z,13.11
2022-09-01T00:17:57.279Z,13.15
2022-09-01T00:19:03.393Z,13.29
2022-09-01T00:20:10.663Z,13.35
2022-09-01T00:21:18.382Z,13.40
2022-09-01T00:22:25.513Z,13.22
2022-09-01T00:23:32.682Z,13.33
2022-09-01T00:24:40.152Z,13.28
2022-09-01T00:25:47.272Z,13.23
2022-09-01T00:26:57.116Z,13.28
2022-09-01T00:28:06.573Z,13.34
2022-09-01T00:29:14.693Z,13.45
2022-09-01T00:30:22.877Z,13.48
2022-09-01T00:31:30.028Z,13.60
2022-09-01T00:32:37.652Z,13.59
2022-09-01T00:33:44.227Z,13.63
2022-09-01T00:34:50.133Z,13.74
2022-09-01T00:35:55.943Z,13.98
2022-09-01T00:37:05.112Z,14.15
2022-09-01T00:38:12.873Z,14.19
2022-09-01T00:39:19.092Z,14.21
2022-09-01T00:40:28.679Z,14.33
2022-09-01T00:41:38.888Z,14.25
2022-09-01T00:42:46.111Z,14.30
2022-09-01T00:43:56.670Z,14.44
2022-09-01T00:45:03.840Z,14.61
2022-09-01T00:46:14.046Z,14.62
2022-09-01T00:47:27.503Z,14.59
2022-09-01T00:48:36.873Z,14.62
2022-09-01T00:49:48.165Z,14.57
2022-09-01T00:50:55.542Z,14.72
2022-09-01T00:52:17.832Z,14.60
2022-09-01T00:53:25.661Z,15.05
2022-09-01T00:54:35.432Z,15.10
2022-09-01T00:55:41.592Z,15.23
2022-09-01T00:56:49.730Z,15.26
2022-09-01T00:58:05.913Z,15.17
2022-09-01T00:59:27.681Z,15.40
2022-09-01T01:00:45.411Z,15.35
2022-09-01T01:01:53.163Z,15.42
2022-09-01T01:02:59.656Z,15.70
2022-09-01T01:04:06.612Z,15.87
2022-09-01T01:05:15.654Z,16.03
2022-09-01T01:06:30.703Z,16.05
2022-09-01T01:07:42.620Z,16.09
2022-09-01T01:09:00.323Z,16.15
2022-09-01T01:10:08.015Z,15.98
2022-09-01T01:11:19.581Z,16.00
2022-09-01T01:12:29.032Z,15.89
2022-09-01T01:13:52.122Z,16.00
2022-09-01T01:15:00.053Z,16.28
2022-09-01T01:16:09.200Z,16.36
2022-09-01T01:17:19.656Z,16.40
2022-09-01T01:18:27.422Z,16.42
2022-09-01T01:20:12.471Z,16.26
2022-09-01T01:21:57.742Z,16.30
2022-09-01T01:23:14.153Z,16.39
2022-09-01T01:24:28.402Z,16.40
2022-09-01T01:25:37.823Z,16.46
2022-09-01T01:26:48.122Z,16.52
2022-09-01T01:27:54.071Z,16.56
2022-09-01T01:29:04.552Z,16.75
2022-09-01T01:30:15.191Z,16.84
2022-09-01T01:31:25.410Z,16.86
2022-09-01T01:32:34.592Z,16.88
2022-09-01T01:33:51.912Z,17.06
2022-09-01T01:34:59.433Z,17.09
2022-09-01T01:36:08.560Z,17.20
2022-09-01T01:37:16.422Z,17.42
2022-09-01T01:38:23.831Z,17.56
2022-09-01T01:39:31.354Z,17.48
2022-09-01T01:40:39.178Z,17.58
2022-09-01T01:41:49.541Z,17.68
2022-09-01T01:42:58.472Z,17.79
2022-09-01T01:44:06.312Z,17.95
2022-09-01T01:45:20.035Z,18.05
2022-09-01T01:46:29.943Z,17.98
2022-09-01T01:47:36.993Z,18.14
2022-09-01T01:48:45.362Z,18.29
2022-09-01T01:49:53.610Z,18.30
2022-09-01T01:51:01.351Z,18.41
2022-09-01T01:52:09.431Z,18.58
2022-09-01T01:53:18.127Z,18.67
2022-09-01T01:54:28.002Z,18.92
2022-09-01T01:55:34.991Z,19.16
2022-09-01T01:56:42.791Z,19.29
2022-09-01T01:57:52.760Z,19.35
2022-09-01T01:59:02.632Z,19.50
2022-09-01T02:00:12.033Z,19.58
2022-09-01T02:01:22.699Z,19.52
2022-09-01T02:02:30.379Z,19.64
2022-09-01T02:03:39.222Z,19.64
2022-09-01T02:04:48.131Z,19.75
2022-09-01T02:05:55.077Z,20.12
2022-09-01T02:07:00.903Z,20.38
2022-09-01T02:08:09.512Z,20.22
2022-09-01T02:09:20.080Z,20.28
2022-09-01T02:10:28.073Z,20.41
2022-09-01T02:11:36.292Z,20.45
2022-09-01T02:12:47.113Z,20.60
2022-09-01T02:13:58.260Z,20.81
2022-09-01T02:15:04.823Z,21.01
2022-09-01T02:16:14.782Z,21.21
2022-09-01T02:17:21.683Z,21.22
2022-09-01T02:18:37.993Z,21.34
2022-09-01T02:19:45.022Z,21.42
2022-09-01T02:20:52.242Z,21.60
2022-09-01T02:22:00.542Z,21.58
2022-09-01T02:23:13.389Z,21.61
2022-09-01T02:24:21.671Z,21.83
2022-09-01T02:25:30.532Z,21.84
2022-09-01T02:26:43.923Z,21.91
2022-09-01T02:27:55.505Z,21.79
2022-09-01T02:29:05.825Z,21.88
2022-09-01T02:30:13.278Z,21.88
2022-09-01T02:31:22.032Z,21.89
2022-09-01T02:32:28.054Z,21.85
2022-09-01T02:33:35.454Z,21.91
2022-09-01T02:34:44.387Z,22.01
2022-09-01T02:35:52.922Z,21.95
2022-09-01T02:36:59.414Z,21.94
2022-09-01T02:38:06.314Z,21.97
2022-09-01T02:39:13.351Z,21.82
2022-09-01T02:40:19.609Z,21.61
2022-09-01T02:41:31.152Z,21.74
2022-09-01T02:42:42.798Z,21.89
2022-09-01T02:43:49.192Z,21.82
2022-09-01T02:44:56.812Z,21.76
2022-09-01T02:46:03.524Z,21.83
2022-09-01T02:47:12.232Z,21.91
2022-09-01T02:48:19.025Z,21.84
2022-09-01T02:49:30.703Z,21.77
2022-09-01T02:50:38.014Z,21.86
2022-09-01T02:51:46.460Z,22.00
2022-09-01T02:52:55.323Z,22.00
2022-09-01T02:54:02.111Z,21.92
2022-09-01T02:55:12.343Z,22.09
2022-09-01T02:56:25.629Z,22.14
2022-09-01T02:57:35.333Z,22.04
2022-09-01T02:58:50.692Z,22.09
2022-09-01T02:59:59.314Z,22.24
2022-09-01T03:01:07.171Z,22.24
2022-09-01T03:02:14.968Z,22.22
2022-09-01T03:03:22.492Z,22.19
2022-09-01T03:04:36.431Z,22.10
2022-09-01T03:05:44.539Z,22.16
2022-09-01T03:06:53.454Z,22.13
2022-09-01T03:08:02.644Z,22.10
2022-09-01T03:09:11.269Z,22.27
2022-09-01T03:10:18.233Z,22.22
2022-09-01T03:11:25.672Z,22.28
2022-09-01T03:12:33.801Z,22.20
2022-09-01T03:13:41.022Z,22.24
2022-09-01T03:14:47.872Z,22.41
2022-09-01T03:15:54.821Z,22.37
2022-09-01T03:17:01.714Z,22.41
2022-09-01T03:18:10.779Z,22.65
2022-09-01T03:19:17.272Z,22.68
2022-09-01T03:20:23.512Z,22.74
2022-09-01T03:21:33.034Z,22.75
2022-09-01T03:22:39.337Z,22.78
2022-09-01T03:23:51.542Z,22.89
2022-09-01T03:24:58.792Z,22.96
2022-09-01T03:26:06.901Z,23.04
2022-09-01T03:27:14.061Z,22.98
2022-09-01T03:28:20.094Z,22.91
2022-09-01T03:29:27.512Z,23.28
2022-09-01T03:30:36.071Z,23.24
2022-09-01T03:31:43.972Z,23.28
2022-09-01T03:32:50.911Z,23.40
2022-09-01T03:33:58.081Z,23.54
2022-09-01T03:35:09.674Z,23.46
2022-09-01T03:36:19.802Z,23.54
2022-09-01T03:37:29.499Z,23.54
2022-09-01T03:38:36.661Z,23.59
2022-09-01T03:39:44.393Z,23.64
2022-09-01T03:40:50.894Z,23.62
2022-09-01T03:41:59.389Z,23.65
2022-09-01T03:43:07.832Z,23.72
2022-09-01T03:44:17.123Z,23.55
2022-09-01T03:45:26.962Z,23.41
2022-09-01T03:46:36.785Z,23.49
2022-09-01T03:47:46.090Z,23.69
2022-09-01T03:48:59.192Z,23.49
2022-09-01T03:50:06.792Z,23.54
2022-09-01T03:51:15.413Z,23.63
2022-09-01T03:52:22.239Z,23.90
2022-09-01T03:53:29.191Z,23.80
2022-09-01T03:54:36.312Z,23.94
2022-09-01T03:55:42.863Z,23.95
2022-09-01T03:56:50.104Z,23.84
2022-09-01T03:58:01.833Z,24.02
2022-09-01T03:59:17.611Z,23.88
2022-09-01T04:00:31.031Z,24.26
2022-09-01T04:01:42.031Z,24.28
2022-09-01T04:02:56.084Z,24.35
2022-09-01T04:04:07.932Z,24.32
2022-09-01T04:05:15.980Z,24.30
2022-09-01T04:06:25.180Z,24.34
2022-09-01T04:07:32.379Z,24.36
2022-09-01T04:08:40.870Z,24.40
2022-09-01T04:09:53.551Z,24.26
2022-09-01T04:11:01.332Z,24.26
2022-09-01T04:12:16.491Z,24.51
2022-09-01T04:13:32.915Z,24.51
2022-09-01T04:14:42.102Z,24.58
2022-09-01T04:15:49.031Z,24.63
2022-09-01T04:17:15.202Z,24.42
2022-09-01T04:18:22.042Z,24.68
2022-09-01T04:19:29.195Z,24.81
2022-09-01T04:20:49.283Z,24.85
2022-09-01T04:22:02.501Z,25.10
2022-09-01T04:23:21.772Z,25.38
2022-09-01T04:24:29.701Z,25.38
2022-09-01T04:25:40.053Z,25.54
2022-09-01T04:26:49.893Z,25.55
2022-09-01T04:27:57.722Z,25.64
2022-09-01T04:29:05.040Z,25.89
2022-09-01T04:30:14.172Z,25.86
2022-09-01T04:31:27.628Z,25.83
2022-09-01T04:32:35.871Z,25.70
2022-09-01T04:33:47.683Z,25.67
2022-09-01T04:34:54.070Z,25.71
2022-09-01T04:36:01.464Z,25.66
2022-09-01T04:37:19.036Z,25.72
2022-09-01T04:38:30.596Z,25.91
2022-09-01T04:39:39.853Z,25.61
2022-09-01T04:40:46.051Z,25.67
2022-09-01T04:41:54.893Z,25.59
2022-09-01T04:43:01.318Z,25.65
2022-09-01T04:44:08.843Z,25.76
2022-09-01T04:45:23.303Z,25.80
2022-09-01T04:46:32.173Z,25.79
2022-09-01T04:47:42.589Z,26.03
2022-09-01T04:48:54.881Z,26.15
2022-09-01T04:50:04.873Z,26.08
2022-09-01T04:51:13.155Z,26.15
2022-09-01T04:52:32.853Z,26.20
2022-09-01T04:53:41.903Z,26.14
2022-09-01T04:54:49.616Z,26.40
2022-09-01T04:55:55.962Z,26.62
2022-09-01T04:57:06.373Z,26.68
2022-09-01T04:58:19.123Z,26.81
2022-09-01T04:59:27.804Z,26.79
2022-09-01T05:00:38.296Z,27.07
2022-09-01T05:01:47.534Z,27.09
2022-09-01T05:03:06.262Z,26.98
2022-09-01T05:04:35.672Z,26.94
2022-09-01T05:05:46.437Z,26.90
2022-09-01T05:06:58.802Z,26.78
2022-09-01T05:08:23.043Z,26.81
2022-09-01T05:09:38.132Z,26.85
2022-09-01T05:11:08.745Z,27.15
2022-09-01T05:12:24.572Z,27.23
2022-09-01T05:13:33.442Z,27.20
2022-09-01T05:14:44.695Z,27.11
2022-09-01T05:16:00.552Z,26.91
2022-09-01T05:17:11.556Z,26.87
2022-09-01T05:18:24.561Z,26.92
2022-09-01T05:19:35.556Z,26.92
2022-09-01T05:20:42.862Z,27.01
2022-09-01T05:21:49.253Z,27.52
2022-09-01T05:22:57.632Z,27.63
2022-09-01T05:24:05.622Z,28.05
2022-09-01T05:25:14.452Z,28.28
2022-09-01T05:26:31.894Z,28.21
2022-09-01T05:27:50.422Z,28.15
2022-09-01T05:29:00.681Z,28.09
2022-09-01T05:30:10.932Z,28.27
2022-09-01T05:31:20.456Z,28.31
2022-09-01T05:32:29.182Z,28.49
2022-09-01T05:33:37.353Z,28.49
2022-09-01T05:34:46.296Z,28.67
2022-09-01T05:36:01.754Z,28.63
2022-09-01T05:37:09.326Z,28.82
2022-09-01T05:38:19.474Z,28.86
2022-09-01T05:39:27.731Z,29.05
2022-09-01T05:40:41.953Z,29.25
2022-09-01T05:41:50.801Z,29.21
2022-09-01T05:42:58.683Z,29.15
2022-09-01T05:44:09.144Z,29.13
2022-09-01T05:45:21.872Z,29.17
2022-09-01T05:46:29.636Z,29.18
2022-09-01T05:47:40.270Z,29.16
2022-09-01T05:48:50.437Z,29.08
2022-09-01T05:49:56.132Z,28.79
2022-09-01T05:51:02.292Z,28.78
2022-09-01T05:52:11.717Z,28.70
2022-09-01T05:53:18.375Z,28.54
2022-09-01T05:54:31.556Z,28.55
2022-09-01T05:55:41.564Z,28.31
2022-09-01T05:56:48.844Z,28.29
2022-09-01T05:58:06.182Z,28.07
2022-09-01T05:59:29.248Z,27.98
2022-09-01T06:01:00.371Z,27.78
2022-09-01T06:02:10.124Z,27.96
2022-09-01T06:03:18.623Z,28.15
2022-09-01T06:04:26.756Z,28.24
2022-09-01T06:05:40.462Z,28.46
2022-09-01T06:07:07.880Z,28.59
2022-09-01T06:08:20.819Z,28.67
2022-09-01T06:09:27.877Z,28.58
2022-09-01T06:10:36.314Z,28.55
2022-09-01T06:11:43.669Z,28.58
2022-09-01T06:12:55.202Z,28.68
2022-09-01T06:14:02.414Z,28.88
2022-09-01T06:15:17.681Z,28.95
2022-09-01T06:16:32.629Z,29.10
2022-09-01T06:17:42.503Z,29.29
2022-09-01T06:18:50.973Z,29.31
2022-09-01T06:20:01.774Z,29.37
2022-09-01T06:21:09.652Z,29.32
2022-09-01T06:22:21.133Z,29.33
2022-09-01T06:23:29.052Z,29.37
2022-09-01T06:24:44.092Z,29.42
2022-09-01T06:25:52.782Z,29.44
2022-09-01T06:27:00.955Z,29.57
2022-09-01T06:28:09.528Z,29.78
2022-09-01T06:29:17.242Z,29.91
2022-09-01T06:30:27.885Z,29.86
2022-09-01T06:31:43.150Z,29.81
2022-09-01T06:32:50.492Z,29.95
2022-09-01T06:33:58.274Z,29.99
2022-09-01T06:35:08.072Z,30.01
2022-09-01T06:36:18.262Z,30.13
2022-09-01T06:37:24.501Z,30.23
2022-09-01T06:38:36.062Z,30.21
2022-09-01T06:39:44.972Z,30.20
2022-09-01T06:40:54.885Z,30.30
2022-09-01T06:42:01.551Z,30.48
2022-09-01T06:43:19.538Z,30.84
2022-09-01T06:44:28.322Z,30.87
2022-09-01T06:45:44.225Z,30.80
2022-09-01T06:46:56.476Z,30.94
2022-09-01T06:48:02.521Z,30.93
2022-09-01T06:49:12.244Z,31.25
2022-09-01T06:51:53.562Z,31.19
2022-09-01T06:54:44.414Z,31.80
2022-09-01T06:55:51.052Z,31.75
2022-09-01T06:56:58.428Z,31.70
2022-09-01T06:58:07.833Z,31.80
2022-09-01T06:59:16.932Z,32.01
2022-09-01T07:00:27.681Z,32.10
2022-09-01T07:01:34.526Z,32.09
2022-09-01T07:02:42.542Z,32.18
2022-09-01T07:04:13.578Z,32.21
2022-09-01T07:12:27.878Z,32.14
2022-09-01T07:16:53.603Z,32.09
2022-09-01T07:18:22.307Z,31.96
2022-09-01T07:19:48.249Z,31.94
2022-09-01T07:21:06.967Z,31.86
2022-09-01T07:23:02.646Z,31.99
2022-09-01T07:24:10.620Z,32.41
2022-09-01T07:27:09.252Z,32.20
2022-09-01T07:28:19.691Z,32.31
2022-09-01T07:29:36.568Z,32.35
2022-09-01T07:30:51.929Z,32.38
2022-09-01T07:33:44.420Z,32.49
2022-09-01T07:34:52.882Z,32.35
2022-09-01T07:42:55.516Z,32.37
2022-09-01T07:44:23.622Z,33.23
2022-09-01T07:45:31.433Z,33.18
2022-09-01T07:46:42.895Z,33.14
2022-09-01T07:47:57.742Z,33.25
2022-09-01T07:51:34.352Z,33.74
2022-09-01T07:52:00.251Z,33.64
2022-09-01T07:53:07.253Z,33.62
2022-09-01T07:54:15.782Z,33.69
2022-09-01T07:55:22.504Z,33.68
2022-09-01T07:56:37.509Z,33.84
2022-09-01T07:57:49.073Z,33.93
2022-09-01T07:58:56.843Z,33.96
2022-09-01T08:00:05.962Z,34.06
2022-09-01T08:01:23.945Z,33.87
2022-09-01T08:02:31.960Z,33.59
2022-09-01T08:03:40.582Z,33.52
2022-09-01T08:04:49.188Z,33.56
2022-09-01T08:06:01.212Z,33.67
2022-09-01T08:07:15.447Z,33.73
2022-09-01T08:08:29.314Z,33.79
2022-09-01T08:09:44.033Z,33.72
2022-09-01T08:11:04.373Z,34.13
2022-09-01T08:12:15.552Z,34.33
2022-09-01T08:13:29.192Z,34.14
2022-09-01T08:14:37.342Z,34.08
2022-09-01T08:17:17.198Z,34.56
2022-09-01T08:18:49.546Z,34.56
2022-09-01T08:20:18.294Z,34.51
2022-09-01T08:21:32.713Z,34.79
2022-09-01T08:22:48.812Z,34.91
2022-09-01T08:24:15.131Z,35.02
2022-09-01T08:25:24.902Z,35.05
2022-09-01T08:26:37.522Z,35.17
2022-09-01T08:27:44.422Z,35.09
2022-09-01T08:28:55.717Z,35.41
2022-09-01T08:30:16.157Z,35.66
2022-09-01T08:31:22.499Z,35.82
2022-09-01T08:32:29.482Z,36.12
2022-09-01T08:33:36.882Z,36.16
2022-09-01T08:34:44.904Z,36.09
2022-09-01T08:35:51.602Z,35.98
2022-09-01T08:36:58.013Z,36.10
2022-09-01T08:38:03.692Z,36.32
2022-09-01T08:39:09.983Z,36.07
2022-09-01T08:40:19.975Z,36.09
2022-09-01T08:42:08.833Z,36.16
2022-09-01T08:43:55.402Z,36.39
2022-09-01T08:45:25.502Z,36.21
2022-09-01T08:46:36.389Z,35.97
2022-09-01T08:48:05.910Z,35.96
2022-09-01T08:49:25.673Z,35.98
2022-09-01T08:51:21.923Z,36.29
2022-09-01T08:53:09.352Z,36.32
2022-09-01T08:54:45.563Z,36.35
2022-09-01T08:55:58.664Z,36.11
2022-09-01T08:57:13.193Z,35.94
2022-09-01T08:58:42.457Z,36.14
2022-09-01T09:00:26.482Z,36.49
2022-09-01T09:02:07.760Z,36.39
2022-09-01T09:03:48.189Z,36.43
2022-09-01T09:05:25.345Z,36.60
2022-09-01T09:06:49.523Z,36.47
2022-09-01T09:08:25.063Z,36.47
2022-09-01T09:09:53.074Z,36.79
2022-09-01T09:11:02.011Z,36.95
2022-09-01T09:12:11.518Z,37.25
2022-09-01T09:13:47.832Z,37.23
2022-09-01T09:15:12.544Z,37.35
2022-09-01T09:16:24.520Z,37.62
2022-09-01T09:17:35.776Z,37.90
2022-09-01T09:19:04.554Z,37.89
2022-09-01T09:20:12.704Z,37.78
2022-09-01T09:21:22.663Z,37.75
2022-09-01T09:22:29.141Z,37.68
2022-09-01T09:23:40.534Z,37.62
2022-09-01T09:24:51.104Z,37.27
2022-09-01T09:25:58.982Z,37.20
2022-09-01T09:27:09.612Z,37.58
2022-09-01T09:28:19.522Z,38.02
2022-09-01T09:29:29.916Z,38.32
2022-09-01T09:30:38.569Z,38.33
2022-09-01T09:31:50.281Z,38.34
2022-09-01T09:33:30.836Z,39.24
2022-09-01T09:34:33.507Z,39.46
2022-09-01T09:35:41.296Z,39.49
2022-09-01T09:36:54.519Z,39.54
2022-09-01T09:38:21.518Z,39.45
2022-09-01T09:39:27.946Z,39.67
2022-09-01T09:41:06.691Z,39.79
2022-09-01T09:42:11.143Z,39.41
2022-09-01T09:43:22.310Z,39.40
2022-09-01T09:44:36.399Z,39.86
2022-09-01T09:45:42.702Z,39.76
2022-09-01T09:46:53.076Z,39.57
2022-09-01T09:48:06.662Z,39.84
2022-09-01T09:49:42.256Z,39.86
2022-09-01T09:50:52.922Z,39.59
2022-09-01T09:52:11.757Z,39.63
2022-09-01T09:53:33.984Z,39.49
2022-09-01T09:54:44.742Z,39.52
2022-09-01T09:56:04.717Z,39.49
2022-09-01T09:57:18.733Z,39.75
2022-09-01T09:58:29.403Z,39.79
2022-09-01T10:00:01.003Z,39.99
2022-09-01T10:01:26.397Z,40.55
2022-09-01T10:02:39.924Z,40.63
2022-09-01T10:03:54.866Z,40.71
2022-09-01T10:05:03.272Z,40.67
2022-09-01T10:06:14.072Z,40.65
2022-09-01T10:07:47.703Z,40.49
2022-09-01T10:08:55.584Z,40.11
2022-09-01T10:10:05.042Z,40.15
2022-09-01T10:11:12.872Z,40.12
2022-09-01T10:12:20.533Z,40.16
2022-09-01T10:13:27.855Z,40.28
2022-09-01T10:14:53.142Z,40.10
2022-09-01T10:16:07.938Z,40.24
2022-09-01T10:17:43.590Z,40.92
2022-09-01T10:18:51.338Z,42.05
2022-09-01T10:20:07.432Z,42.55
2022-09-01T10:21:36.865Z,42.09
2022-09-01T10:22:44.810Z,42.00
2022-09-01T10:23:52.543Z,41.93
2022-09-01T10:25:00.753Z,41.71
2022-09-01T10:26:18.867Z,41.82
2022-09-01T10:27:27.202Z,41.72
2022-09-01T10:28:33.482Z,41.72
2022-09-01T10:29:47.745Z,41.89
2022-09-01T10:30:57.735Z,41.90
2022-09-01T10:32:31.883Z,41.81
2022-09-01T10:33:36.896Z,42.15
2022-09-01T10:34:44.862Z,42.46
2022-09-01T10:35:54.153Z,42.83
2022-09-01T10:37:00.302Z,43.00
2022-09-01T10:38:18.974Z,42.73
2022-09-01T10:39:30.550Z,42.68
2022-09-01T10:40:49.188Z,42.81
2022-09-01T10:42:08.721Z,42.73
2022-09-01T10:43:37.473Z,42.85
2022-09-01T10:45:02.882Z,43.20
2022-09-01T10:46:26.061Z,43.22
2022-09-01T10:47:41.182Z,43.88
2022-09-01T10:48:56.061Z,43.90
2022-09-01T10:50:40.393Z,43.81
2022-09-01T10:51:51.887Z,44.09
2022-09-01T10:53:05.512Z,44.08
2022-09-01T10:54:12.731Z,44.44
2022-09-01T10:55:27.682Z,44.56
2022-09-01T10:56:51.799Z,44.37
2022-09-01T10:59:56.046Z,44.12
2022-09-01T11:01:15.487Z,44.30
2022-09-01T11:02:28.879Z,44.25
2022-09-01T11:03:57.046Z,44.56
2022-09-01T11:05:05.329Z,44.70
2022-09-01T11:06:13.628Z,44.52
2022-09-01T11:07:44.562Z,44.10
2022-09-01T11:09:02.664Z,43.78
2022-09-01T11:10:35.953Z,43.52
2022-09-01T11:12:14.902Z,43.30
2022-09-01T11:13:34.911Z,43.05
2022-09-01T11:14:58.442Z,43.23
2022-09-01T11:16:49.257Z,43.29
2022-09-01T11:17:58.171Z,42.89
2022-09-01T11:19:23.111Z,42.68
2022-09-01T11:20:43.894Z,42.34
2022-09-01T11:22:09.709Z,42.03
2022-09-01T11:23:25.270Z,41.88
2022-09-01T11:24:54.438Z,42.16
2022-09-01T11:26:27.213Z,42.12
2022-09-01T11:27:53.031Z,41.88
2022-09-01T11:29:00.306Z,41.47
2022-09-01T11:30:10.390Z,41.68
2022-09-01T11:31:26.172Z,41.69
2022-09-01T11:32:36.722Z,41.67
2022-09-01T11:33:43.853Z,41.80
2022-09-01T11:34:51.483Z,41.84
2022-09-01T11:36:36.764Z,41.96
2022-09-01T11:37:43.841Z,42.08
2022-09-01T11:38:58.267Z,42.06
2022-09-01T11:40:07.799Z,42.02
2022-09-01T11:41:24.721Z,42.03
2022-09-01T11:42:41.830Z,42.07
2022-09-01T11:43:55.602Z,42.16
2022-09-01T11:45:28.967Z,42.65
2022-09-01T11:46:37.034Z,42.99
2022-09-01T11:47:51.904Z,43.23
2022-09-01T11:49:09.282Z,43.26
2022-09-01T11:50:24.661Z,43.13
2022-09-01T11:51:49.521Z,43.13
2022-09-01T11:53:16.868Z,43.02
2022-09-01T11:54:25.024Z,42.92
2022-09-01T11:55:37.833Z,42.86
2022-09-01T11:56:45.343Z,42.73
2022-09-01T11:57:54.351Z,42.58
2022-09-01T11:59:00.701Z,42.58
2022-09-01T12:00:14.901Z,42.83
2022-09-01T12:01:46.481Z,42.77
2022-09-01T12:02:53.134Z,42.87
2022-09-01T12:04:26.303Z,43.25
2022-09-01T12:05:34.621Z,43.35
2022-09-01T12:06:41.791Z,43.33
2022-09-01T12:07:48.966Z,43.14
2022-09-01T12:09:02.672Z,43.01
2022-09-01T12:10:35.126Z,43.13
2022-09-01T12:11:43.314Z,43.08
2022-09-01T12:12:50.143Z,43.18
2022-09-01T12:14:11.588Z,43.20
2022-09-01T12:15:22.722Z,43.51
2022-09-01T12:16:30.003Z,43.84
2022-09-01T12:17:37.471Z,44.08
2022-09-01T12:18:52.711Z,44.09
2022-09-01T12:20:30.089Z,44.00
2022-09-01T12:21:44.412Z,44.13
2022-09-01T12:22:50.782Z,44.36
2022-09-01T12:24:18.771Z,43.92
2022-09-01T12:25:30.200Z,44.45
2022-09-01T12:26:37.672Z,44.45
2022-09-01T12:27:44.782Z,44.35
2022-09-01T12:28:51.902Z,44.33
2022-09-01T12:30:02.381Z,44.33
2022-09-01T12:31:14.791Z,44.31
2022-09-01T12:32:21.376Z,44.45
2022-09-01T12:33:29.631Z,44.28
2022-09-01T12:34:42.493Z,44.14
2022-09-01T12:35:56.096Z,44.13
2022-09-01T12:37:17.671Z,44.30
2022-09-01T12:38:27.764Z,44.29
2022-09-01T12:39:45.761Z,44.28
2022-09-01T12:40:54.863Z,44.23
2022-09-01T12:42:13.613Z,44.17
2022-09-01T12:43:35.861Z,44.01
2022-09-01T12:44:42.502Z,43.82
2022-09-01T12:45:52.274Z,43.75
2022-09-01T12:46:59.974Z,44.01
2022-09-01T12:48:06.193Z,44.52
2022-09-01T12:49:28.567Z,44.52
2022-09-01T12:50:37.416Z,44.56
2022-09-01T12:51:48.415Z,44.33
2022-09-01T12:53:03.817Z,44.44
2022-09-01T12:54:13.076Z,44.18
2022-09-01T12:56:50.476Z,44.00
2022-09-01T12:57:58.926Z,44.08
2022-09-01T12:59:17.888Z,44.28
2022-09-01T13:00:34.536Z,44.61
2022-09-01T13:01:44.505Z,44.87
2022-09-01T13:02:51.539Z,44.78
2022-09-01T13:04:14.666Z,44.75
2022-09-01T13:05:27.128Z,44.50
2022-09-01T13:06:37.336Z,44.08
2022-09-01T13:07:44.125Z,44.05
2022-09-01T13:08:50.700Z,43.89
2022-09-01T13:09:57.926Z,43.76
2022-09-01T13:11:11.657Z,44.46
2022-09-01T13:12:20.922Z,44.05
2022-09-01T13:13:27.188Z,43.84
2022-09-01T13:14:34.056Z,43.85
2022-09-01T13:15:48.855Z,43.84
2022-09-01T13:16:55.964Z,43.80
2022-09-01T13:18:03.484Z,43.78
2022-09-01T13:19:11.243Z,43.74
2022-09-01T13:20:21.643Z,43.61
2022-09-01T13:21:28.437Z,43.42
2022-09-01T13:22:36.375Z,43.43
2022-09-01T13:23:44.040Z,43.39
2022-09-01T13:24:51.036Z,43.35
2022-09-01T13:25:59.855Z,43.27
2022-09-01T13:27:22.292Z,43.51
2022-09-01T13:28:30.369Z,44.13
2022-09-01T13:29:37.455Z,44.18
2022-09-01T13:30:44.565Z,43.74
2022-09-01T13:33:23.161Z,43.90
2022-09-01T13:34:30.069Z,43.91
2022-09-01T13:35:37.272Z,44.26
2022-09-01T13:36:49.341Z,44.29
2022-09-01T13:37:59.658Z,44.02
2022-09-01T13:39:06.127Z,43.75
2022-09-01T13:40:16.405Z,43.76
2022-09-01T13:41:23.587Z,43.75
2022-09-01T13:42:33.300Z,43.62
2022-09-01T13:43:41.291Z,43.66
2022-09-01T13:44:49.713Z,43.53
2022-09-01T13:45:59.279Z,43.53
2022-09-01T13:50:10.773Z,43.07
2022-09-01T13:51:28.534Z,42.82
2022-09-01T13:52:35.484Z,42.54
2022-09-01T13:53:43.646Z,42.45
2022-09-01T13:54:50.201Z,42.38
2022-09-01T13:57:08.745Z,42.18
2022-09-01T13:58:15.968Z,41.91
2022-09-01T13:59:24.355Z,41.78
2022-09-01T14:00:37.007Z,41.53
2022-09-01T14:01:45.266Z,41.29
2022-09-01T14:02:54.038Z,40.98
2022-09-01T14:04:06.650Z,40.59
2022-09-01T14:05:12.615Z,40.16
2022-09-01T14:06:22.188Z,39.96
2022-09-01T14:07:28.345Z,39.91
2022-09-01T14:08:40.535Z,39.49
2022-09-01T14:09:47.648Z,38.93
2022-09-01T14:10:57.247Z,38.45
2022-09-01T14:12:03.705Z,37.71
2022-09-01T14:13:10.916Z,37.72
2022-09-01T14:14:18.201Z,37.88
2022-09-01T14:15:27.357Z,37.73
2022-09-01T14:16:35.177Z,37.55
2022-09-01T14:17:41.194Z,37.44
2022-09-01T14:18:50.807Z,37.32
2022-09-01T14:20:00.640Z,37.29
2022-09-01T14:21:07.318Z,37.26
2022-09-01T14:22:14.166Z,37.12
2022-09-01T14:23:20.944Z,37.24
2022-09-01T14:24:28.796Z,37.41
2022-09-01T14:25:39.186Z,37.07
2022-09-01T14:26:52.191Z,37.17
2022-09-01T14:27:59.191Z,37.24
2022-09-01T14:29:05.577Z,37.28
2022-09-01T14:30:33.715Z,37.39
2022-09-01T14:31:40.226Z,37.70
2022-09-01T14:32:50.145Z,37.99
2022-09-01T14:33:58.018Z,38.04
2022-09-01T14:35:04.858Z,38.08
2022-09-01T14:36:18.014Z,38.09
2022-09-01T14:37:25.747Z,38.30
2022-09-01T14:38:32.536Z,38.62
2022-09-01T14:39:40.366Z,38.85
2022-09-01T14:40:51.114Z,39.03
2022-09-01T14:42:02.536Z,39.06
2022-09-01T14:43:11.187Z,39.25
2022-09-01T14:44:19.996Z,39.15
2022-09-01T14:45:28.858Z,39.05
2022-09-01T14:46:35.266Z,38.95
2022-09-01T14:47:43.006Z,38.79
2022-09-01T14:48:52.715Z,38.74
2022-09-01T14:50:00.043Z,38.63
2022-09-01T14:51:10.367Z,38.46
2022-09-01T14:52:20.108Z,38.17
2022-09-01T14:53:27.362Z,37.88
2022-09-01T14:54:34.535Z,37.70
2022-09-01T14:55:44.133Z,37.95
2022-09-01T14:58:29.145Z,38.88
2022-09-01T14:59:36.919Z,39.04
2022-09-01T15:00:48.577Z,39.08
2022-09-01T15:01:56.501Z,39.12
2022-09-01T15:03:04.542Z,39.41
2022-09-01T15:04:11.922Z,39.41
2022-09-01T15:05:18.679Z,39.35
2022-09-01T15:06:29.007Z,39.38
2022-09-01T15:07:35.330Z,39.62
2022-09-01T15:08:44.186Z,40.14
2022-09-01T15:09:51.413Z,40.71
2022-09-01T15:11:02.184Z,40.94
2022-09-01T15:12:10.204Z,41.12
2022-09-01T15:13:17.450Z,41.00
2022-09-01T15:14:25.113Z,41.10
2022-09-01T15:15:32.013Z,41.05
2022-09-01T15:16:42.554Z,41.10
2022-09-01T15:17:49.506Z,41.17
2022-09-01T15:18:58.864Z,41.28
2022-09-01T15:20:25.676Z,41.15
2022-09-01T15:21:34.946Z,40.92
2022-09-01T15:22:44.138Z,40.60
2022-09-01T15:23:51.628Z,40.22
2022-09-01T15:24:58.773Z,40.18
2022-09-01T15:26:07.139Z,40.29
2022-09-01T15:27:13.058Z,40.12
2022-09-01T15:28:20.443Z,40.06
2022-09-01T15:29:27.928Z,39.90
2022-09-01T15:30:36.178Z,39.79
2022-09-01T15:31:46.029Z,39.61
2022-09-01T15:32:55.849Z,39.44
2022-09-01T15:34:04.903Z,39.12
2022-09-01T15:35:13.138Z,38.71
2022-09-01T15:36:23.346Z,37.89
2022-09-01T15:37:29.817Z,37.47
2022-09-01T15:38:39.625Z,36.54
2022-09-01T15:39:46.996Z,36.02
2022-09-01T15:40:58.009Z,36.11
2022-09-01T15:42:05.745Z,35.90
2022-09-01T15:43:14.991Z,35.47
2022-09-01T15:44:28.889Z,35.16
2022-09-01T15:45:37.217Z,35.01
2022-09-01T15:46:47.799Z,34.85
2022-09-01T15:47:55.525Z,34.71
2022-09-01T15:49:08.904Z,34.61
2022-09-01T15:50:21.037Z,34.48
2022-09-01T15:51:33.796Z,34.70
2022-09-01T15:52:58.687Z,34.60
2022-09-01T15:54:10.513Z,34.61
2022-09-01T15:55:16.768Z,34.36
2022-09-01T15:56:24.666Z,34.45
2022-09-01T15:57:30.194Z,34.64
2022-09-01T15:59:00.352Z,34.62
2022-09-01T16:00:08.476Z,34.58
2022-09-01T16:01:23.268Z,34.48
2022-09-01T16:02:29.428Z,34.23
2022-09-01T16:03:35.719Z,33.89
2022-09-01T16:04:46.153Z,33.84
2022-09-01T16:05:52.305Z,33.59
2022-09-01T16:07:02.074Z,33.50